Terminal Aerodrome Forecast
Issued by NWS

Home | Current Version | Previous Version | Text Only | Print | Product List | Glossary On
Versions: 1 2 3 4 5 6 7 8 9 10 11 12 13 14 15 16 17 18
000
FTUS43 KILX 232327
TAFBMI
TAF
KBMI 232327Z 2400/2424 34009KT P6SM OVC015
     FM240900 VRB04KT 2SM BR OVC008
     FM241600 14007KT P6SM BKN015
     FM241900 15009KT P6SM BKN035
     FM242200 14012G21KT P6SM BKN050=

USA.gov is the U.S. government's official web portal to all federal, state and local government web resources and services.